createdAt,value
2023-03-21T00:01:03.497Z,9.60
2023-03-21T00:16:13.886Z,8.80
2023-03-21T00:31:09.938Z,12.40
2023-03-21T00:46:09.952Z,14.00
2023-03-21T01:01:10.736Z,8.90
2023-03-21T01:16:11.138Z,10.70
2023-03-21T01:31:11.745Z,14.00
2023-03-21T01:46:12.758Z,14.10
2023-03-21T02:01:13.035Z,18.40
2023-03-21T02:16:13.507Z,23.20
2023-03-21T02:31:14.549Z,22.80
2023-03-21T02:46:15.988Z,25.30
2023-03-21T03:01:17.346Z,29.90
2023-03-21T03:16:17.997Z,35.50
2023-03-21T03:31:20.785Z,35.60
2023-03-21T03:46:21.401Z,34.20
2023-03-21T04:01:21.663Z,43.90
2023-03-21T04:16:22.256Z,39.40
2023-03-21T04:31:26.001Z,37.90
2023-03-21T04:46:26.636Z,43.20
2023-03-21T05:01:27.519Z,43.90
2023-03-21T05:16:28.522Z,40.40
2023-03-21T05:31:29.320Z,52.30
2023-03-21T05:46:29.585Z,45.80
2023-03-21T06:01:30.146Z,55.90
2023-03-21T06:16:30.406Z,54.90
2023-03-21T06:31:30.679Z,54.90
2023-03-21T06:46:30.819Z,57.80
2023-03-21T07:01:31.151Z,58.50
2023-03-21T07:16:31.177Z,62.10
2023-03-21T07:31:31.877Z,56.90
2023-03-21T07:46:32.537Z,64.40
2023-03-21T08:01:32.749Z,56.40
2023-03-21T08:16:32.946Z,56.30
2023-03-21T08:31:33.207Z,61.10
2023-03-21T08:46:33.461Z,51.60
2023-03-21T09:01:33.838Z,47.80
2023-03-21T09:16:34.057Z,44.60
2023-03-21T09:31:34.626Z,41.30
2023-03-21T09:46:36.045Z,40.90
2023-03-21T10:01:36.986Z,44.10
2023-03-21T10:16:37.516Z,37.40
2023-03-21T10:31:37.525Z,32.70
2023-03-21T10:46:38.820Z,33.00
2023-03-21T11:01:40.013Z,31.60
2023-03-21T11:16:41.030Z,24.00
2023-03-21T11:31:41.662Z,25.10
2023-03-21T11:46:42.441Z,19.20
2023-03-21T12:01:43.293Z,22.10
2023-03-21T12:16:44.334Z,24.50
2023-03-21T12:31:46.057Z,15.90
2023-03-21T12:46:47.136Z,18.50
2023-03-21T13:01:47.807Z,15.00
2023-03-21T13:16:48.503Z,14.60
2023-03-21T13:31:52.448Z,14.70
2023-03-21T13:46:54.516Z,10.70
2023-03-21T14:01:55.336Z,10.50
2023-03-21T14:16:55.576Z,13.20
2023-03-21T14:31:56.406Z,13.90
2023-03-21T14:46:56.248Z,12.70
2023-03-21T15:01:56.837Z,20.50
2023-03-21T15:16:57.421Z,10.60
2023-03-21T15:31:57.448Z,14.40
2023-03-21T15:46:58.226Z,11.30
2023-03-21T16:01:58.721Z,12.40
2023-03-21T16:16:59.388Z,11.90
2023-03-21T16:32:00.877Z,12.70
2023-03-21T16:47:02.655Z,11.80
2023-03-21T17:02:03.391Z,13.80
2023-03-21T17:17:03.677Z,13.40
2023-03-21T17:32:03.804Z,17.50
2023-03-21T17:47:04.692Z,13.50
2023-03-21T18:02:04.867Z,12.20
2023-03-21T18:17:04.870Z,17.80
2023-03-21T18:32:07.352Z,16.30
2023-03-21T18:47:08.929Z,25.50
2023-03-21T19:02:10.479Z,26.10
2023-03-21T19:18:21.853Z,30.20
2023-03-21T19:32:17.112Z,25.60
2023-03-21T19:47:19.609Z,24.50
2023-03-21T20:02:35.028Z,37.20
2023-03-21T20:17:26.850Z,30.60
2023-03-21T20:32:27.311Z,28.10
2023-03-21T20:47:26.995Z,26.20
2023-03-21T21:02:27.679Z,32.90
2023-03-21T21:17:54.493Z,38.60
2023-03-21T21:32:33.791Z,44.70
2023-03-21T21:47:33.897Z,50.70
2023-03-21T22:02:34.458Z,45.20
2023-03-21T22:17:34.510Z,53.10
2023-03-21T22:32:35.085Z,42.90
2023-03-21T22:47:35.327Z,55.20
2023-03-21T23:02:35.682Z,70.90
2023-03-21T23:17:36.268Z,75.60
2023-03-21T23:32:37.364Z,75.80
2023-03-21T23:47:38.593Z,68.90
